Time;durP1;ratioP1;P1;durP2;ratioP2;P2;SDS_P1;SDS_P2;PMS_P1;PMS_P2;Temp;Humidity;BMP_temperature;BMP_pressure;BME280_temperature;BME280_humidity;BME280_pressure;Samples;Min_cycle;Max_cycle;Signal;HPM_P1;HPM_P2
2023/09/07 00:02:13;;;;;;;4.30;3.90;;;;;;;;;;4992731;28;20057;-83
2023/09/07 00:04:40;;;;;;;7.95;4.25;;;;;;;;;;4992279;28;20054;-83
2023/09/07 00:07:07;;;;;;;6.18;4.68;;;;;;;;;;4976442;28;20043;-83
2023/09/07 00:09:34;;;;;;;4.53;4.13;;;;;;;;;;4975245;28;20058;-83
2023/09/07 00:12:02;;;;;;;5.90;4.43;;;;;;;;;;4973581;28;20054;-83
2023/09/07 00:14:29;;;;;;;8.70;3.97;;;;;;;;;;4992591;28;20046;-83
2023/09/07 00:16:57;;;;;;;4.82;4.30;;;;;;;;;;4992055;28;20065;-83
2023/09/07 00:19:25;;;;;;;4.72;4.32;;;;;;;;;;4990760;28;20412;-83
2023/09/07 00:21:52;;;;;;;7.25;3.78;;;;;;;;;;4991341;28;20505;-83
2023/09/07 00:24:20;;;;;;;4.32;3.92;;;;;;;;;;4993268;28;20054;-83
2023/09/07 00:26:47;;;;;;;4.32;3.67;;;;;;;;;;4976791;28;20046;-83
2023/09/07 00:29:16;;;;;;;6.40;4.35;;;;;;;;;;4976156;28;20061;-83
2023/09/07 00:31:43;;;;;;;5.22;4.68;;;;;;;;;;4992376;28;20046;-83
2023/09/07 00:34:15;;;;;;;5.45;3.63;;;;;;;;;;4973469;28;20519;-83
2023/09/07 00:36:49;;;;;;;5.35;4.28;;;;;;;;;;4950365;28;20131;-83
2023/09/07 00:39:19;;;;;;;5.50;4.70;;;;;;;;;;4956590;28;20066;-83
2023/09/07 00:41:49;;;;;;;5.45;4.88;;;;;;;;;;4955975;28;20051;-83
2023/09/07 00:44:20;;;;;;;3.95;3.53;;;;;;;;;;4986094;28;20061;-82
2023/09/07 00:46:47;;;;;;;6.03;3.92;;;;;;;;;;4962315;28;20047;-82
2023/09/07 00:49:15;;;;;;;7.38;4.60;;;;;;;;;;4975636;28;20049;-82
2023/09/07 00:51:42;;;;;;;6.80;4.15;;;;;;;;;;4977373;28;20054;-82
2023/09/07 00:54:11;;;;;;;8.80;5.72;;;;;;;;;;4977008;28;20035;-82
2023/09/07 00:56:41;;;;;;;5.07;4.18;;;;;;;;;;4964584;28;20069;-82
2023/09/07 00:59:14;;;;;;;6.40;4.65;;;;;;;;;;4981059;28;20047;-83
2023/09/07 01:01:42;;;;;;;6.15;4.68;;;;;;;;;;4962805;28;20043;-81
2023/09/07 01:04:12;;;;;;;8.43;5.50;;;;;;;;;;4978342;28;20049;-81
2023/09/07 01:06:41;;;;;;;5.70;4.80;;;;;;;;;;4963488;28;20066;-81
2023/09/07 01:09:15;;;;;;;6.13;4.93;;;;;;;;;;4965566;28;20416;-82
2023/09/07 01:11:46;;;;;;;5.40;4.03;;;;;;;;;;4971929;28;20081;-81
2023/09/07 01:14:18;;;;;;;6.32;4.95;;;;;;;;;;4963837;28;20066;-81
2023/09/07 01:16:46;;;;;;;5.82;5.13;;;;;;;;;;4972532;28;20047;-81
2023/09/07 01:19:13;;;;;;;5.95;4.35;;;;;;;;;;4964400;28;20058;-81
2023/09/07 01:21:44;;;;;;;4.20;3.80;;;;;;;;;;4979475;28;20054;-81
2023/09/07 01:24:15;;;;;;;7.40;4.00;;;;;;;;;;4981767;28;20408;-81
2023/09/07 01:26:43;;;;;;;6.05;4.60;;;;;;;;;;4963240;28;20408;-81
2023/09/07 01:29:15;;;;;;;7.43;5.77;;;;;;;;;;4980972;28;20432;-81
2023/09/07 01:31:47;;;;;;;4.78;4.03;;;;;;;;;;4970936;28;20115;-81
2023/09/07 01:34:15;;;;;;;4.93;3.85;;;;;;;;;;4962822;28;20057;-81
2023/09/07 01:36:46;;;;;;;11.88;5.47;;;;;;;;;;4963746;28;20054;-81
2023/09/07 01:39:13;;;;;;;8.45;5.40;;;;;;;;;;4981110;28;20058;-81
2023/09/07 01:41:42;;;;;;;6.72;5.05;;;;;;;;;;4964093;28;20066;-81
2023/09/07 01:44:14;;;;;;;6.00;4.10;;;;;;;;;;4959299;28;20061;-81
2023/09/07 01:46:46;;;;;;;4.72;4.03;;;;;;;;;;4962292;28;20039;-81
2023/09/07 01:49:16;;;;;;;5.35;4.18;;;;;;;;;;4963834;28;20053;-81
2023/09/07 01:51:43;;;;;;;6.40;5.18;;;;;;;;;;4963577;28;20527;-81
2023/09/07 01:58:05;;;;;;;3.75;3.17;;;;;;;;;;4978833;28;20049;-91
2023/09/07 02:00:37;;;;;;;5.32;3.53;;;;;;;;;;5036566;28;20049;-90
2023/09/07 02:03:05;;;;;;;5.22;4.18;;;;;;;;;;5037610;28;20398;-90
2023/09/07 02:05:33;;;;;;;16.65;4.63;;;;;;;;;;5026681;28;20053;-90
2023/09/07 02:08:03;;;;;;;4.45;3.95;;;;;;;;;;5043585;28;20049;-90
2023/09/07 02:10:37;;;;;;;7.45;5.07;;;;;;;;;;5013316;28;20048;-89
2023/09/07 02:13:05;;;;;;;;;;;;;;;;;;5015129;28;20560;-90
2023/09/07 02:15:38;;;;;;;6.35;3.42;;;;;;;;;;5009162;28;19928;-90
2023/09/07 02:18:05;;;;;;;6.22;4.35;;;;;;;;;;5034073;28;20398;-90
2023/09/07 02:20:40;;;;;;;8.20;4.95;;;;;;;;;;5011352;28;20394;-90
2023/09/07 02:23:10;;;;;;;6.80;5.15;;;;;;;;;;5003379;28;20441;-90
2023/09/07 02:25:41;;;;;;;7.32;4.85;;;;;;;;;;5015567;28;20051;-89
2023/09/07 02:28:12;;;;;;;3.78;3.28;;;;;;;;;;5009858;28;20085;-90
2023/09/07 02:30:42;;;;;;;7.07;4.93;;;;;;;;;;5033492;28;20052;-90
2023/09/07 02:33:09;;;;;;;4.38;3.58;;;;;;;;;;5003577;28;20045;-91
2023/09/07 02:35:39;;;;;;;7.78;4.47;;;;;;;;;;5018119;28;20049;-90
2023/09/07 02:38:07;;;;;;;5.25;4.75;;;;;;;;;;5023729;28;20060;-91
2023/09/07 02:40:42;;;;;;;7.57;5.43;;;;;;;;;;5029892;28;20405;-91
2023/09/07 02:43:13;;;;;;;5.25;4.47;;;;;;;;;;5022099;28;20049;-91
2023/09/07 02:45:40;;;;;;;5.65;5.15;;;;;;;;;;5010595;28;20060;-90
2023/09/07 02:48:10;;;;;;;5.78;4.03;;;;;;;;;;5042340;28;20414;-90
2023/09/07 02:50:39;;;;;;;3.97;3.40;;;;;;;;;;5029547;28;20049;-90
2023/09/07 02:53:07;;;;;;;5.38;4.38;;;;;;;;;;5005358;28;20513;-90
2023/09/07 02:55:35;;;;;;;4.85;3.53;;;;;;;;;;5011740;28;20056;-90
2023/09/07 02:58:03;;;;;;;4.93;4.47;;;;;;;;;;5013812;28;20057;-91
2023/09/07 03:00:32;;;;;;;4.28;3.80;;;;;;;;;;5030361;28;20044;-90
2023/09/07 03:03:00;;;;;;;5.43;4.05;;;;;;;;;;5013794;28;20049;-90
2023/09/07 03:05:28;;;;;;;5.00;4.10;;;;;;;;;;5007700;28;20057;-89
2023/09/07 03:07:58;;;;;;;6.32;4.35;;;;;;;;;;5014665;28;20060;-91
2023/09/07 03:10:27;;;;;;;8.88;4.80;;;;;;;;;;5006453;28;20050;-90
2023/09/07 03:12:54;;;;;;;4.47;3.55;;;;;;;;;;5013619;28;20064;-89
2023/09/07 03:15:22;;;;;;;7.47;4.78;;;;;;;;;;5021618;28;20064;-90
2023/09/07 03:17:51;;;;;;;7.55;5.07;;;;;;;;;;5015766;28;20056;-90
2023/09/07 03:20:19;;;;;;;5.07;4.57;;;;;;;;;;5030104;28;20041;-90
2023/09/07 03:22:50;;;;;;;4.68;4.28;;;;;;;;;;5031052;28;20053;-90
2023/09/07 03:25:20;;;;;;;5.07;4.57;;;;;;;;;;5029491;28;20072;-90
2023/09/07 03:27:50;;;;;;;4.30;3.83;;;;;;;;;;5031775;28;20052;-90
2023/09/07 03:30:18;;;;;;;5.70;4.18;;;;;;;;;;5011457;28;20053;-91
2023/09/07 03:32:46;;;;;;;5.03;4.43;;;;;;;;;;5016771;28;20053;-89
2023/09/07 03:35:15;;;;;;;4.75;4.20;;;;;;;;;;5012346;28;20045;-90
2023/09/07 03:37:44;;;;;;;5.15;4.40;;;;;;;;;;5008542;28;20060;-90
2023/09/07 03:40:13;;;;;;;4.95;4.07;;;;;;;;;;5007393;28;20112;-91
2023/09/07 03:42:42;;;;;;;3.53;2.90;;;;;;;;;;5001236;28;20635;-92
2023/09/07 03:45:10;;;;;;;5.47;3.97;;;;;;;;;;5017201;28;20057;-89
2023/09/07 03:47:38;;;;;;;6.47;5.22;;;;;;;;;;5019006;28;20064;-90
2023/09/07 03:50:11;;;;;;;3.97;3.67;;;;;;;;;;5028917;28;20064;-90
2023/09/07 03:52:40;;;;;;;8.45;5.60;;;;;;;;;;5024724;28;20433;-90
2023/09/07 03:55:12;;;;;;;6.15;5.38;;;;;;;;;;5012732;28;20509;-91
2023/09/07 03:57:40;;;;;;;6.43;5.32;;;;;;;;;;5016621;28;20053;-90
2023/09/07 04:00:11;;;;;;;7.18;3.40;;;;;;;;;;5016525;28;20037;-90
2023/09/07 04:02:44;;;;;;;4.30;3.47;;;;;;;;;;5018191;28;20422;-90
2023/09/07 04:05:14;;;;;;;5.25;3.80;;;;;;;;;;5036381;28;20049;-91
2023/09/07 04:07:43;;;;;;;4.85;4.18;;;;;;;;;;5034100;28;20792;-89
2023/09/07 04:10:10;;;;;;;6.05;3.92;;;;;;;;;;5029137;28;20437;-90
2023/09/07 04:12:38;;;;;;;5.60;4.97;;;;;;;;;;5028883;28;20041;-91
2023/09/07 04:15:06;;;;;;;7.95;5.28;;;;;;;;;;5025005;28;20075;-90
2023/09/07 04:17:40;;;;;;;5.55;3.72;;;;;;;;;;5016600;28;20052;-89
2023/09/07 04:20:11;;;;;;;7.47;5.22;;;;;;;;;;5017178;28;20406;-90
2023/09/07 04:22:42;;;;;;;4.80;4.40;;;;;;;;;;5033019;28;20061;-90
2023/09/07 04:25:10;;;;;;;5.95;4.63;;;;;;;;;;5037685;28;20045;-91
2023/09/07 04:27:37;;;;;;;6.90;4.60;;;;;;;;;;5000953;28;20057;-90
2023/09/07 04:30:09;;;;;;;6.20;4.63;;;;;;;;;;5031317;28;20056;-90
2023/09/07 04:32:37;;;;;;;4.78;4.07;;;;;;;;;;5026226;28;20524;-90
2023/09/07 04:35:06;;;;;;;5.30;4.15;;;;;;;;;;5020642;28;20060;-89
2023/09/07 04:37:34;;;;;;;4.55;4.13;;;;;;;;;;5021592;28;20048;-90
2023/09/07 04:40:04;;;;;;;7.20;4.72;;;;;;;;;;5022738;28;20120;-90
2023/09/07 04:42:32;;;;;;;4.50;4.00;;;;;;;;;;5032179;28;20063;-90
2023/09/07 04:44:59;;;;;;;6.07;5.05;;;;;;;;;;5003706;28;20040;-90
2023/09/07 04:47:27;;;;;;;4.80;4.10;;;;;;;;;;5031536;28;20048;-90
2023/09/07 04:49:54;;;;;;;4.95;4.35;;;;;;;;;;5050630;28;20052;-90
2023/09/07 04:52:23;;;;;;;4.68;4.25;;;;;;;;;;5030685;28;20552;-90
2023/09/07 04:54:50;;;;;;;7.22;4.40;;;;;;;;;;5016292;28;20076;-90
2023/09/07 04:57:20;;;;;;;6.60;5.07;;;;;;;;;;5016736;28;20060;-90
2023/09/07 04:59:49;;;;;;;6.40;4.55;;;;;;;;;;5037932;28;20042;-89
2023/09/07 05:02:17;;;;;;;6.70;5.00;;;;;;;;;;5018368;28;20052;-89
2023/09/07 05:04:45;;;;;;;3.47;3.17;;;;;;;;;;5016605;28;20057;-90
2023/09/07 05:07:12;;;;;;;5.00;3.90;;;;;;;;;;5041725;28;20052;-89
2023/09/07 05:09:40;;;;;;;5.03;4.18;;;;;;;;;;5062592;28;20045;-89
2023/09/07 05:12:07;;;;;;;5.60;4.55;;;;;;;;;;5015266;28;20048;-89
2023/09/07 05:14:36;;;;;;;6.15;4.45;;;;;;;;;;5029738;28;20041;-90
2023/09/07 05:17:04;;;;;;;4.95;4.28;;;;;;;;;;5056809;28;20048;-89
2023/09/07 05:19:31;;;;;;;5.38;3.70;;;;;;;;;;5005711;28;20057;-89
2023/09/07 05:21:59;;;;;;;5.55;4.93;;;;;;;;;;5032541;28;20508;-90
2023/09/07 05:24:26;;;;;;;6.30;5.05;;;;;;;;;;5019868;28;20052;-89
2023/09/07 05:26:54;;;;;;;6.78;4.93;;;;;;;;;;5009043;28;20057;-91
2023/09/07 05:29:23;;;;;;;5.65;4.35;;;;;;;;;;5027018;28;20045;-90
2023/09/07 05:31:54;;;;;;;5.95;4.95;;;;;;;;;;5050457;28;20517;-89
2023/09/07 05:34:22;;;;;;;5.85;4.22;;;;;;;;;;5023884;28;20506;-89
2023/09/07 05:36:49;;;;;;;6.03;4.47;;;;;;;;;;5013617;28;20045;-89
2023/09/07 05:39:20;;;;;;;9.43;7.00;;;;;;;;;;5011132;28;20055;-90
2023/09/07 05:41:50;;;;;;;8.43;5.20;;;;;;;;;;5030130;28;20060;-90
2023/09/07 05:44:17;;;;;;;4.47;3.90;;;;;;;;;;5037856;28;20310;-90
2023/09/07 05:46:45;;;;;;;8.90;4.47;;;;;;;;;;5013419;28;20409;-90
2023/09/07 05:49:13;;;;;;;4.13;3.53;;;;;;;;;;5027267;28;20044;-90
2023/09/07 05:51:41;;;;;;;4.55;3.83;;;;;;;;;;5002079;28;20049;-90
2023/09/07 05:54:09;;;;;;;5.88;4.15;;;;;;;;;;5027565;28;20519;-91
2023/09/07 05:56:36;;;;;;;7.70;3.72;;;;;;;;;;5006128;28;20049;-91
2023/09/07 05:59:03;;;;;;;5.75;4.28;;;;;;;;;;5037678;28;20049;-90
2023/09/07 06:01:33;;;;;;;3.92;3.50;;;;;;;;;;5002521;28;20528;-91
2023/09/07 06:04:00;;;;;;;3.25;2.50;;;;;;;;;;5026051;28;20045;-90
2023/09/07 06:06:30;;;;;;;9.20;3.53;;;;;;;;;;5016182;28;20049;-90
2023/09/07 06:08:58;;;;;;;5.43;3.60;;;;;;;;;;5002480;28;20048;-91
2023/09/07 06:11:29;;;;;;;5.28;3.22;;;;;;;;;;5027260;28;20060;-91
2023/09/07 06:13:58;;;;;;;10.57;3.58;;;;;;;;;;5041397;28;20045;-91
2023/09/07 06:16:25;;;;;;;4.25;3.83;;;;;;;;;;5018406;28;20049;-91
2023/09/07 06:18:53;;;;;;;5.68;4.10;;;;;;;;;;5027545;28;20045;-91
2023/09/07 06:21:20;;;;;;;3.75;2.95;;;;;;;;;;5024421;28;20052;-91
2023/09/07 06:23:50;;;;;;;4.53;3.50;;;;;;;;;;5011889;28;20057;-91
2023/09/07 06:26:19;;;;;;;4.35;3.95;;;;;;;;;;5009099;28;20061;-90
2023/09/07 06:28:48;;;;;;;5.10;3.42;;;;;;;;;;5028685;28;20057;-90
2023/09/07 06:31:16;;;;;;;4.45;3.80;;;;;;;;;;5032569;28;20052;-90
2023/09/07 06:33:43;;;;;;;5.78;3.88;;;;;;;;;;5013004;28;20532;-90
2023/09/07 06:36:11;;;;;;;4.43;3.75;;;;;;;;;;5022081;28;20044;-91
2023/09/07 06:38:38;;;;;;;4.68;3.85;;;;;;;;;;5016400;28;20052;-90
2023/09/07 06:41:10;;;;;;;6.07;4.25;;;;;;;;;;5010335;28;20060;-89
2023/09/07 06:43:41;;;;;;;9.02;4.35;;;;;;;;;;5007050;28;20059;-91
2023/09/07 06:46:10;;;;;;;5.75;4.15;;;;;;;;;;5013464;28;20521;-91
2023/09/07 06:48:40;;;;;;;6.80;4.15;;;;;;;;;;5010421;28;20056;-90
2023/09/07 06:51:09;;;;;;;6.80;4.50;;;;;;;;;;5012668;28;20054;-90
2023/09/07 06:53:37;;;;;;;8.82;5.00;;;;;;;;;;5031469;28;20056;-90
2023/09/07 06:56:06;;;;;;;5.47;3.92;;;;;;;;;;5006272;28;20041;-90
2023/09/07 06:58:35;;;;;;;4.70;3.95;;;;;;;;;;5029839;28;20057;-90
2023/09/07 07:01:04;;;;;;;6.80;4.03;;;;;;;;;;5018628;28;20045;-90
2023/09/07 07:03:32;;;;;;;4.60;3.67;;;;;;;;;;5009347;28;20064;-90
2023/09/07 07:05:59;;;;;;;8.57;4.63;;;;;;;;;;5042477;28;20049;-90
2023/09/07 07:08:27;;;;;;;3.92;3.20;;;;;;;;;;5031658;28;20056;-91
2023/09/07 07:10:54;;;;;;;4.47;4.07;;;;;;;;;;5030468;28;20056;-90
2023/09/07 07:13:22;;;;;;;3.83;3.47;;;;;;;;;;5015531;28;20068;-90
2023/09/07 07:15:53;;;;;;;4.95;3.58;;;;;;;;;;5031532;28;20056;-90
2023/09/07 07:18:21;;;;;;;3.33;3.03;;;;;;;;;;5018516;28;20433;-90
2023/09/07 07:20:48;;;;;;;4.88;4.38;;;;;;;;;;5011591;28;20061;-90
2023/09/07 07:23:16;;;;;;;4.40;3.25;;;;;;;;;;5013381;28;20049;-90
2023/09/07 07:25:43;;;;;;;4.00;3.60;;;;;;;;;;5021970;28;20056;-90
2023/09/07 07:28:13;;;;;;;5.30;3.90;;;;;;;;;;5013263;28;20065;-90
2023/09/07 07:30:41;;;;;;;3.92;3.63;;;;;;;;;;5024845;28;20063;-90
2023/09/07 07:33:11;;;;;;;4.25;3.50;;;;;;;;;;5006970;28;20072;-90
2023/09/07 07:35:39;;;;;;;3.95;3.58;;;;;;;;;;5012412;28;20060;-91
2023/09/07 07:38:07;;;;;;;4.68;3.75;;;;;;;;;;5018785;28;20045;-91
2023/09/07 07:40:36;;;;;;;5.03;4.63;;;;;;;;;;5008856;28;20072;-90
2023/09/07 07:43:04;;;;;;;14.30;3.85;;;;;;;;;;5013523;28;20056;-91
2023/09/07 07:45:36;;;;;;;3.30;3.03;;;;;;;;;;5026859;28;20044;-91
2023/09/07 07:48:07;;;;;;;3.67;3.33;;;;;;;;;;5010533;28;20046;-91
2023/09/07 07:50:39;;;;;;;7.10;4.13;;;;;;;;;;5013549;28;20049;-91
2023/09/07 07:53:08;;;;;;;4.10;3.70;;;;;;;;;;5013872;28;20045;-91
2023/09/07 07:55:38;;;;;;;5.03;3.90;;;;;;;;;;5005068;28;20072;-91
2023/09/07 07:58:07;;;;;;;4.65;4.25;;;;;;;;;;5029871;28;20176;-90
2023/09/07 08:00:35;;;;;;;4.63;3.60;;;;;;;;;;5013617;28;20053;-90
2023/09/07 08:03:06;;;;;;;6.10;4.32;;;;;;;;;;5014269;28;20049;-91
2023/09/07 08:05:39;;;;;;;4.07;3.55;;;;;;;;;;5026201;28;20425;-91
2023/09/07 08:08:08;;;;;;;5.38;3.60;;;;;;;;;;5032751;28;20057;-90
2023/09/07 08:10:37;;;;;;;5.28;4.00;;;;;;;;;;5035988;28;20056;-91
2023/09/07 08:17:20;;;;;;;6.10;3.90;;;;;;;;;;5041119;28;20053;-90
2023/09/07 08:19:48;;;;;;;3.83;3.53;;;;;;;;;;5032057;28;20476;-89
2023/09/07 08:22:17;;;;;;;4.05;3.65;;;;;;;;;;5022167;28;20060;-90
2023/09/07 08:24:47;;;;;;;4.75;3.75;;;;;;;;;;5033091;28;20056;-91
2023/09/07 08:27:18;;;;;;;4.40;3.15;;;;;;;;;;5057502;28;20064;-91
2023/09/07 08:29:51;;;;;;;4.22;3.83;;;;;;;;;;5022729;28;20051;-90
2023/09/07 08:32:18;;;;;;;5.72;3.88;;;;;;;;;;5026379;28;20058;-90
2023/09/07 08:34:46;;;;;;;4.20;3.78;;;;;;;;;;5056079;28;20037;-91
2023/09/07 08:37:13;;;;;;;4.50;3.58;;;;;;;;;;5014822;28;20049;-91
2023/09/07 08:39:41;;;;;;;6.50;3.40;;;;;;;;;;5029372;28;20049;-91
2023/09/07 08:42:12;;;;;;;4.13;3.70;;;;;;;;;;5025937;28;20049;-90
2023/09/07 08:44:39;;;;;;;4.97;3.63;;;;;;;;;;5013629;28;20080;-91
2023/09/07 08:47:07;;;;;;;4.00;3.60;;;;;;;;;;5015068;28;20057;-91
2023/09/07 08:49:34;;;;;;;3.80;3.50;;;;;;;;;;5029856;28;20049;-91
2023/09/07 08:52:04;;;;;;;3.92;3.55;;;;;;;;;;5032252;28;20527;-91
2023/09/07 08:54:32;;;;;;;4.07;3.67;;;;;;;;;;5029562;28;20056;-91
2023/09/07 08:57:03;;;;;;;6.72;3.78;;;;;;;;;;5024377;28;20041;-91
2023/09/07 08:59:32;;;;;;;5.03;4.60;;;;;;;;;;5040160;28;20049;-91
2023/09/07 09:02:00;;;;;;;4.38;3.97;;;;;;;;;;5028544;28;20041;-91
2023/09/07 09:04:28;;;;;;;4.35;3.95;;;;;;;;;;5023059;28;20045;-90
2023/09/07 09:06:56;;;;;;;4.85;4.22;;;;;;;;;;5024150;28;20045;-90
2023/09/07 09:09:26;;;;;;;5.30;3.97;;;;;;;;;;5022738;28;20052;-90
2023/09/07 09:11:53;;;;;;;4.53;4.13;;;;;;;;;;5045507;28;20434;-91
2023/09/07 09:14:22;;;;;;;15.02;4.93;;;;;;;;;;5045084;28;20049;-92
2023/09/07 09:16:51;;;;;;;4.53;3.70;;;;;;;;;;5018835;28;20053;-91
2023/09/07 09:19:31;;;;;;;4.80;3.60;;;;;;;;;;5022880;28;20060;-91
2023/09/07 09:21:59;;;;;;;3.47;3.15;;;;;;;;;;5036764;28;20049;-91
2023/09/07 09:24:26;;;;;;;4.13;3.75;;;;;;;;;;5018010;28;20041;-92
2023/09/07 09:26:54;;;;;;;4.53;3.35;;;;;;;;;;5041099;28;20067;-91
2023/09/07 09:29:23;;;;;;;4.00;3.60;;;;;;;;;;5046423;28;20041;-92
2023/09/07 09:31:53;;;;;;;3.95;3.55;;;;;;;;;;5045295;28;20429;-90
2023/09/07 09:34:20;;;;;;;5.10;3.92;;;;;;;;;;5010918;28;20052;-91
2023/09/07 09:36:51;;;;;;;3.80;3.45;;;;;;;;;;5040549;28;20081;-91
2023/09/07 09:39:24;;;;;;;5.78;3.65;;;;;;;;;;5046691;28;21694;-92
2023/09/07 09:41:55;;;;;;;3.85;3.55;;;;;;;;;;5026109;28;20405;-90
2023/09/07 09:44:25;;;;;;;3.50;3.20;;;;;;;;;;5032318;28;20453;-91
2023/09/07 09:46:55;;;;;;;4.50;2.90;;;;;;;;;;5029756;28;20049;-91
2023/09/07 09:49:23;;;;;;;5.10;3.70;;;;;;;;;;5011247;28;20053;-91
2023/09/07 09:51:52;;;;;;;4.32;3.65;;;;;;;;;;4995755;28;20049;-91
2023/09/07 09:54:22;;;;;;;4.65;3.85;;;;;;;;;;5041052;28;20056;-91
2023/09/07 09:56:50;;;;;;;3.88;3.38;;;;;;;;;;5013247;28;20046;-91
2023/09/07 09:59:29;;;;;;;4.25;3.85;;;;;;;;;;5029746;28;20437;-91
2023/09/07 10:02:04;;;;;;;4.03;3.65;;;;;;;;;;5032916;28;20052;-92
2023/09/07 10:04:34;;;;;;;3.55;3.25;;;;;;;;;;5026542;28;20053;-92
2023/09/07 10:07:05;;;;;;;3.92;3.47;;;;;;;;;;5046701;28;20425;-92
2023/09/07 10:09:33;;;;;;;5.63;4.03;;;;;;;;;;5036220;28;20494;-92
2023/09/07 10:12:07;;;;;;;4.32;3.92;;;;;;;;;;5015158;28;20056;-91
2023/09/07 10:14:42;;;;;;;4.23;3.80;;;;;;;;;;5027364;28;20053;-91
2023/09/07 10:17:11;;;;;;;10.40;4.50;;;;;;;;;;5023378;28;20053;-92
2023/09/07 10:19:39;;;;;;;3.90;3.50;;;;;;;;;;5046338;28;20060;-91
2023/09/07 10:22:07;;;;;;;6.05;3.35;;;;;;;;;;5007193;28;20493;-92
2023/09/07 10:24:38;;;;;;;4.50;3.70;;;;;;;;;;5044091;28;20049;-92
2023/09/07 10:27:07;;;;;;;5.00;3.40;;;;;;;;;;5022146;28;20060;-91
2023/09/07 10:29:42;;;;;;;3.42;3.10;;;;;;;;;;5020743;28;20045;-93
2023/09/07 10:32:12;;;;;;;5.07;4.07;;;;;;;;;;5029203;28;20390;-93
2023/09/07 10:34:43;;;;;;;4.15;3.75;;;;;;;;;;5045510;28;20422;-91
2023/09/07 10:37:13;;;;;;;4.05;3.65;;;;;;;;;;5022075;28;20049;-91
2023/09/07 10:39:42;;;;;;;3.70;3.30;;;;;;;;;;5022194;28;20053;-91
2023/09/07 10:42:21;;;;;;;4.32;3.92;;;;;;;;;;5021393;28;20053;-91
2023/09/07 10:44:49;;;;;;;5.13;3.20;;;;;;;;;;5033585;28;20409;-92
2023/09/07 10:47:18;;;;;;;4.53;3.90;;;;;;;;;;5023598;28;20041;-91
2023/09/07 10:49:45;;;;;;;3.58;3.22;;;;;;;;;;5039873;28;20052;-92
2023/09/07 10:52:13;;;;;;;6.32;3.42;;;;;;;;;;5051007;28;20041;-91
2023/09/07 10:54:43;;;;;;;4.47;4.13;;;;;;;;;;5050036;28;20040;-92
2023/09/07 10:57:13;;;;;;;4.18;3.15;;;;;;;;;;5047346;28;20053;-91
2023/09/07 10:59:45;;;;;;;3.92;3.63;;;;;;;;;;5035434;28;20076;-92
2023/09/07 11:02:12;;;;;;;4.68;3.60;;;;;;;;;;5017629;28;20060;-91
2023/09/07 11:04:41;;;;;;;3.53;3.20;;;;;;;;;;5031687;28;20054;-91
2023/09/07 11:07:11;;;;;;;5.72;3.80;;;;;;;;;;5033212;28;20053;-91
2023/09/07 11:09:41;;;;;;;4.32;3.92;;;;;;;;;;5019699;28;20075;-91
2023/09/07 11:12:15;;;;;;;4.60;4.20;;;;;;;;;;5012170;28;20048;-91
2023/09/07 11:14:42;;;;;;;3.47;3.17;;;;;;;;;;5032009;28;20057;-91
2023/09/07 11:17:12;;;;;;;4.05;2.95;;;;;;;;;;5006657;28;20049;-92
2023/09/07 11:19:41;;;;;;;5.47;3.35;;;;;;;;;;5024332;28;20052;-90
2023/09/07 11:22:13;;;;;;;3.60;3.25;;;;;;;;;;5044335;28;20045;-92
2023/09/07 11:24:41;;;;;;;7.15;4.10;;;;;;;;;;5023597;28;20045;-92
2023/09/07 11:27:10;;;;;;;4.65;3.30;;;;;;;;;;5029022;28;20044;-92
2023/09/07 11:29:39;;;;;;;4.15;3.58;;;;;;;;;;5025900;28;20057;-91
2023/09/07 11:32:10;;;;;;;4.50;4.10;;;;;;;;;;5041574;28;20527;-90
2023/09/07 11:34:54;;;;;;;4.55;3.55;;;;;;;;;;5032657;28;20057;-91
2023/09/07 11:37:25;;;;;;;4.25;3.42;;;;;;;;;;5019384;28;20667;-91
2023/09/07 11:39:52;;;;;;;4.55;3.72;;;;;;;;;;5042086;28;20048;-91
2023/09/07 11:42:20;;;;;;;4.03;3.53;;;;;;;;;;5042759;28;20053;-92
2023/09/07 11:44:47;;;;;;;4.63;3.58;;;;;;;;;;5054813;28;20067;-90
2023/09/07 11:47:16;;;;;;;4.05;3.75;;;;;;;;;;5034803;28;20056;-92
2023/09/07 11:49:43;;;;;;;4.18;3.78;;;;;;;;;;5030457;28;20442;-91
2023/09/07 11:52:12;;;;;;;5.88;3.50;;;;;;;;;;5035139;28;20036;-91
2023/09/07 11:54:40;;;;;;;12.75;4.95;;;;;;;;;;5054317;28;20049;-92
2023/09/07 11:57:09;;;;;;;6.93;3.13;;;;;;;;;;5036094;28;20049;-91
2023/09/07 11:59:39;;;;;;;5.05;3.42;;;;;;;;;;5030642;28;20045;-90
2023/09/07 12:02:06;;;;;;;4.55;3.95;;;;;;;;;;5015258;28;20061;-91
2023/09/07 12:04:36;;;;;;;5.45;3.78;;;;;;;;;;5033998;28;20053;-90
2023/09/07 12:07:19;;;;;;;4.10;3.63;;;;;;;;;;5029746;28;20049;-91
2023/09/07 12:09:48;;;;;;;5.70;4.05;;;;;;;;;;5017696;28;20063;-91
2023/09/07 12:12:15;;;;;;;6.45;4.05;;;;;;;;;;5041598;28;20046;-91
2023/09/07 12:14:43;;;;;;;5.10;3.60;;;;;;;;;;5030971;28;20425;-91
2023/09/07 12:17:10;;;;;;;4.13;3.72;;;;;;;;;;5049267;28;20033;-91
2023/09/07 12:19:41;;;;;;;4.75;3.60;;;;;;;;;;5038225;28;20045;-91
2023/09/07 12:22:09;;;;;;;6.03;3.25;;;;;;;;;;5052379;28;20041;-91
2023/09/07 12:24:40;;;;;;;6.20;3.15;;;;;;;;;;5053205;28;20052;-91
2023/09/07 12:27:07;;;;;;;4.82;3.47;;;;;;;;;;5049609;28;20034;-91
2023/09/07 12:29:35;;;;;;;4.35;3.55;;;;;;;;;;5060955;28;20045;-91
2023/09/07 12:32:06;;;;;;;3.78;3.47;;;;;;;;;;5033221;28;20064;-91
2023/09/07 12:34:34;;;;;;;4.03;3.65;;;;;;;;;;5016462;28;20429;-91
2023/09/07 12:37:03;;;;;;;4.10;3.70;;;;;;;;;;5034750;28;20041;-91
2023/09/07 12:39:34;;;;;;;4.03;3.03;;;;;;;;;;5045807;28;20049;-91
2023/09/07 12:42:03;;;;;;;4.78;3.75;;;;;;;;;;5047093;28;20068;-90
2023/09/07 12:44:40;;;;;;;4.35;2.85;;;;;;;;;;5033811;28;20052;-91
2023/09/07 12:47:08;;;;;;;12.63;3.72;;;;;;;;;;5046785;28;20045;-91
2023/09/07 12:49:36;;;;;;;4.22;3.83;;;;;;;;;;5030864;28;20049;-91
2023/09/07 12:52:08;;;;;;;3.50;3.20;;;;;;;;;;5016814;28;20048;-91
2023/09/07 12:54:36;;;;;;;3.75;3.30;;;;;;;;;;5031429;28;20064;-90
2023/09/07 12:57:06;;;;;;;4.38;3.72;;;;;;;;;;5044382;28;20053;-91
2023/09/07 12:59:33;;;;;;;5.05;2.90;;;;;;;;;;5039561;28;20056;-91
2023/09/07 13:02:00;;;;;;;4.25;3.55;;;;;;;;;;5035347;28;20049;-91
2023/09/07 13:04:30;;;;;;;4.22;3.83;;;;;;;;;;5041625;28;20045;-91
2023/09/07 13:06:58;;;;;;;6.47;3.63;;;;;;;;;;5040740;28;20395;-91
2023/09/07 13:09:25;;;;;;;3.83;3.53;;;;;;;;;;5033438;28;20064;-92
2023/09/07 13:11:52;;;;;;;4.25;3.85;;;;;;;;;;5013513;28;20049;-91
2023/09/07 13:14:21;;;;;;;4.60;3.63;;;;;;;;;;5035388;28;20056;-91
2023/09/07 13:16:50;;;;;;;7.05;3.75;;;;;;;;;;5035479;28;20045;-91
2023/09/07 13:19:18;;;;;;;5.70;3.78;;;;;;;;;;5035085;28;20453;-92
2023/09/07 13:21:45;;;;;;;3.25;2.70;;;;;;;;;;5013546;28;20053;-91
2023/09/07 13:24:12;;;;;;;4.53;3.50;;;;;;;;;;5048930;28;20036;-91
2023/09/07 13:26:41;;;;;;;3.83;3.45;;;;;;;;;;5027369;28;20053;-91
2023/09/07 13:29:08;;;;;;;9.25;4.00;;;;;;;;;;5014729;28;20056;-91
2023/09/07 13:31:39;;;;;;;3.97;3.17;;;;;;;;;;5015657;28;20053;-91
2023/09/07 13:34:10;;;;;;;3.92;3.60;;;;;;;;;;5026377;28;20041;-91
2023/09/07 13:36:39;;;;;;;3.53;3.10;;;;;;;;;;5031934;28;20045;-91
2023/09/07 13:39:10;;;;;;;4.13;2.35;;;;;;;;;;5036940;28;20052;-91
2023/09/07 13:41:37;;;;;;;4.97;3.67;;;;;;;;;;5032679;28;20080;-90
2023/09/07 13:44:07;;;;;;;3.08;2.88;;;;;;;;;;5039403;28;20548;-91
2023/09/07 13:46:35;;;;;;;3.88;3.45;;;;;;;;;;5048137;28;20048;-91
2023/09/07 13:49:04;;;;;;;5.53;3.42;;;;;;;;;;5022984;28;20053;-91
2023/09/07 13:51:37;;;;;;;4.20;3.88;;;;;;;;;;5008812;28;20052;-92
2023/09/07 13:54:04;;;;;;;3.75;2.97;;;;;;;;;;5031099;28;20048;-92
2023/09/07 13:56:32;;;;;;;5.70;3.85;;;;;;;;;;5027125;28;20308;-91
2023/09/07 13:59:37;;;;;;;4.13;3.65;;;;;;;;;;5068666;27;20476;-82
2023/09/07 14:02:05;;;;;;;3.25;2.95;;;;;;;;;;5058706;28;20041;-84
2023/09/07 14:04:32;;;;;;;4.10;3.50;;;;;;;;;;5038901;28;20049;-83
2023/09/07 14:06:59;;;;;;;3.53;3.17;;;;;;;;;;5083637;28;20056;-84
2023/09/07 14:09:27;;;;;;;5.15;3.75;;;;;;;;;;5068989;28;20060;-84
2023/09/07 14:11:54;;;;;;;3.15;2.70;;;;;;;;;;5050277;28;20060;-84
2023/09/07 14:14:21;;;;;;;3.78;3.13;;;;;;;;;;5034975;28;20048;-84
2023/09/07 14:16:55;;;;;;;3.42;3.00;;;;;;;;;;5028484;28;20048;-83
2023/09/07 14:19:22;;;;;;;4.00;3.30;;;;;;;;;;5044102;28;20045;-83
2023/09/07 14:21:49;;;;;;;3.75;3.42;;;;;;;;;;5055696;28;20529;-85
2023/09/07 14:24:17;;;;;;;3.90;3.30;;;;;;;;;;5051898;28;20037;-84
2023/09/07 14:26:44;;;;;;;3.92;3.58;;;;;;;;;;5027946;28;20064;-84
2023/09/07 14:29:11;;;;;;;5.07;3.28;;;;;;;;;;5044114;28;20049;-84
2023/09/07 14:31:39;;;;;;;4.75;2.65;;;;;;;;;;5050598;28;20049;-84
2023/09/07 14:34:08;;;;;;;4.47;3.80;;;;;;;;;;5034969;28;20060;-84
2023/09/07 14:36:35;;;;;;;5.20;3.83;;;;;;;;;;5049966;28;20053;-84
2023/09/07 14:39:03;;;;;;;3.65;3.25;;;;;;;;;;5041026;28;20049;-84
2023/09/07 14:41:31;;;;;;;6.25;3.22;;;;;;;;;;5053863;28;20338;-84
2023/09/07 14:43:58;;;;;;;5.10;2.78;;;;;;;;;;5057912;28;20418;-84
2023/09/07 14:46:25;;;;;;;4.50;3.17;;;;;;;;;;5032465;28;20803;-84
2023/09/07 14:48:53;;;;;;;6.30;3.13;;;;;;;;;;5022297;28;20048;-84
2023/09/07 14:51:21;;;;;;;3.40;3.10;;;;;;;;;;5029732;28;20052;-84
2023/09/07 14:53:49;;;;;;;2.78;2.58;;;;;;;;;;5026757;28;20064;-84
2023/09/07 14:56:16;;;;;;;4.43;3.78;;;;;;;;;;5048273;28;20049;-84
2023/09/07 14:58:43;;;;;;;4.47;3.22;;;;;;;;;;5056392;28;20048;-84
2023/09/07 15:01:11;;;;;;;3.42;2.85;;;;;;;;;;5039940;28;20432;-84
2023/09/07 15:03:40;;;;;;;3.45;2.75;;;;;;;;;;5031225;28;20049;-84